Time;durP1;ratioP1;P1;durP2;ratioP2;P2;SDS_P1;SDS_P2;PMS_P1;PMS_P2;Temp;Humidity;BMP_temperature;BMP_pressure;BME280_temperature;BME280_humidity;BME280_pressure;Samples;Min_cycle;Max_cycle;Signal;HPM_P1;HPM_P2
2023/06/07 00:00:29;;;;;;;7.00;3.20;;;15.80;55.10;;;;;;5026165;28;20045;-64
2023/06/07 00:02:57;;;;;;;6.95;3.63;;;15.80;55.10;;;;;;5018613;28;20041;-65
2023/06/07 00:05:23;;;;;;;6.93;3.38;;;15.80;55.20;;;;;;5015181;28;20041;-65
2023/06/07 00:07:49;;;;;;;5.72;3.67;;;15.90;55.30;;;;;;5031609;28;20041;-65
2023/06/07 00:10:15;;;;;;;6.18;3.50;;;15.70;55.30;;;;;;5035054;28;20052;-65
2023/06/07 00:12:41;;;;;;;6.82;3.60;;;15.70;55.30;;;;;;5016037;28;20053;-65
2023/06/07 00:15:07;;;;;;;9.60;4.43;;;15.70;55.40;;;;;;5016641;28;20038;-65
2023/06/07 00:17:33;;;;;;;6.05;3.60;;;15.60;55.30;;;;;;5013857;28;20052;-64
2023/06/07 00:20:00;;;;;;;5.47;3.33;;;15.60;55.40;;;;;;5013442;28;20125;-65
2023/06/07 00:22:26;;;;;;;6.45;3.45;;;15.60;55.40;;;;;;5029902;28;20160;-65
2023/06/07 00:24:52;;;;;;;7.25;3.38;;;15.60;55.40;;;;;;5033563;28;20402;-64
2023/06/07 00:27:18;;;;;;;5.22;3.42;;;15.50;55.40;;;;;;5013427;28;20053;-65
2023/06/07 00:29:44;;;;;;;9.27;5.13;;;15.50;55.40;;;;;;5014329;28;20061;-65
2023/06/07 00:32:11;;;;;;;9.05;3.85;;;15.50;55.40;;;;;;5018648;28;20058;-65
2023/06/07 00:34:37;;;;;;;5.22;3.38;;;15.50;55.50;;;;;;5025919;28;20073;-64
2023/06/07 00:37:03;;;;;;;5.30;3.50;;;15.50;55.60;;;;;;5014641;28;20093;-65
2023/06/07 00:39:29;;;;;;;7.10;3.88;;;15.50;55.60;;;;;;5014462;28;20068;-65
2023/06/07 00:41:55;;;;;;;7.70;3.90;;;15.40;56.00;;;;;;5025346;28;20040;-65
2023/06/07 00:44:21;;;;;;;6.18;3.65;;;15.40;55.60;;;;;;5021375;28;20077;-65
2023/06/07 00:46:47;;;;;;;9.45;4.70;;;15.40;55.60;;;;;;5017692;28;20514;-65
2023/06/07 00:49:16;;;;;;;6.15;3.97;;;15.40;55.70;;;;;;5021128;28;20496;-64
2023/06/07 00:51:43;;;;;;;7.50;4.22;;;15.30;55.70;;;;;;5022992;28;20041;-65
2023/06/07 00:54:08;;;;;;;7.38;3.80;;;15.30;55.80;;;;;;5028309;28;20049;-65
2023/06/07 00:56:35;;;;;;;8.75;4.22;;;15.30;55.90;;;;;;5032954;28;20060;-65
2023/06/07 00:59:02;;;;;;;6.88;3.70;;;15.20;55.90;;;;;;5002577;28;20121;-65
2023/06/07 01:01:28;;;;;;;7.00;3.92;;;15.20;55.90;;;;;;5002753;28;20042;-65
2023/06/07 01:03:54;;;;;;;7.70;4.10;;;15.20;56.00;;;;;;4999140;28;20096;-65
2023/06/07 01:06:22;;;;;;;7.70;4.53;;;15.20;56.00;;;;;;5033500;28;20441;-65
2023/06/07 01:08:49;;;;;;;5.88;3.85;;;15.10;56.10;;;;;;5047318;28;20046;-65
2023/06/07 01:11:17;;;;;;;5.85;3.30;;;15.10;56.10;;;;;;5042737;28;20037;-65
2023/06/07 01:13:43;;;;;;;6.57;4.03;;;15.10;56.20;;;;;;5018909;28;20065;-65
2023/06/07 01:16:09;;;;;;;8.10;4.72;;;15.10;56.20;;;;;;5048632;28;20046;-65
2023/06/07 01:18:36;;;;;;;5.05;3.13;;;15.00;56.20;;;;;;5032227;28;20053;-65
2023/06/07 01:21:04;;;;;;;5.80;4.00;;;15.00;56.20;;;;;;5027341;28;20108;-65
2023/06/07 01:23:32;;;;;;;6.03;3.58;;;15.00;56.20;;;;;;5017722;28;20099;-65
2023/06/07 01:25:59;;;;;;;6.13;3.53;;;15.00;56.10;;;;;;5033411;28;20475;-65
2023/06/07 01:28:27;;;;;;;6.22;3.90;;;15.00;56.10;;;;;;5032233;28;20397;-65
2023/06/07 01:30:57;;;;;;;6.43;4.25;;;15.00;56.10;;;;;;5032996;28;20050;-65
2023/06/07 01:33:24;;;;;;;6.80;4.13;;;15.00;56.10;;;;;;5017872;28;20054;-65
2023/06/07 01:35:52;;;;;;;6.03;3.72;;;14.90;56.10;;;;;;5027684;28;20048;-65
2023/06/07 01:38:20;;;;;;;4.65;3.50;;;14.90;56.10;;;;;;5009929;28;20470;-65
2023/06/07 01:40:47;;;;;;;6.78;4.78;;;14.90;56.20;;;;;;4997685;28;20042;-65
2023/06/07 01:43:13;;;;;;;7.28;4.57;;;14.80;56.30;;;;;;5027609;28;20125;-65
2023/06/07 01:45:40;;;;;;;7.55;4.90;;;14.80;56.40;;;;;;5027727;28;20045;-65
2023/06/07 01:48:06;;;;;;;7.45;4.63;;;14.80;56.40;;;;;;5032911;28;20045;-65
2023/06/07 01:50:31;;;;;;;7.03;4.18;;;14.80;56.40;;;;;;5032744;28;20435;-65
2023/06/07 01:52:58;;;;;;;6.90;4.05;;;14.80;56.40;;;;;;5029794;28;20617;-65
2023/06/07 01:55:24;;;;;;;6.45;3.95;;;14.80;56.40;;;;;;5031351;28;20037;-65
2023/06/07 01:58:15;;;;;;;7.97;4.35;;;14.70;56.50;;;;;;5039556;28;20045;-65
2023/06/07 02:00:47;;;;;;;7.15;4.15;;;14.70;56.50;;;;;;5012289;28;20381;-65
2023/06/07 02:03:24;;;;;;;7.15;4.55;;;14.70;56.50;;;;;;5046788;28;20037;-65
2023/06/07 02:05:56;;;;;;;7.40;4.32;;;14.60;56.50;;;;;;5032919;28;20187;-65
2023/06/07 02:08:53;;;;;;;5.50;3.92;;;14.60;56.60;;;;;;5014964;28;20116;-65
2023/06/07 02:11:22;;;;;;;6.30;3.95;;;14.60;56.60;;;;;;5023606;28;20393;-65
2023/06/07 02:13:51;;;;;;;5.13;3.75;;;14.50;56.60;;;;;;5020185;28;20393;-65
2023/06/07 02:16:28;;;;;;;7.18;3.92;;;14.50;56.70;;;;;;5031467;28;20080;-64
2023/06/07 02:18:57;;;;;;;7.57;3.97;;;14.50;56.60;;;;;;5031042;28;20053;-65
2023/06/07 02:21:22;;;;;;;5.80;3.70;;;14.50;56.70;;;;;;5026595;28;20044;-64
2023/06/07 02:23:48;;;;;;;6.25;4.18;;;14.50;56.70;;;;;;5020653;28;20045;-64
2023/06/07 02:26:14;;;;;;;6.47;3.75;;;14.50;56.70;;;;;;5026580;28;20042;-65
2023/06/07 02:28:40;;;;;;;5.20;3.80;;;14.40;56.70;;;;;;5012673;28;20050;-64
2023/06/07 02:31:06;;;;;;;6.57;3.83;;;14.40;56.70;;;;;;5017836;28;20057;-65
2023/06/07 02:33:31;;;;;;;6.13;3.45;;;14.40;56.70;;;;;;5029677;28;20060;-65
2023/06/07 02:35:58;;;;;;;5.53;4.00;;;14.40;56.70;;;;;;5046280;28;20103;-65
2023/06/07 02:38:24;;;;;;;6.13;4.03;;;14.40;56.80;;;;;;5031354;28;20053;-65
2023/06/07 02:40:49;;;;;;;7.05;4.00;;;14.30;56.80;;;;;;5027791;28;20165;-65
2023/06/07 02:43:15;;;;;;;5.90;3.50;;;14.30;56.80;;;;;;5021037;28;20033;-65
2023/06/07 02:45:41;;;;;;;5.97;3.45;;;14.30;56.80;;;;;;5030318;28;20069;-65
2023/06/07 02:48:07;;;;;;;6.30;3.75;;;14.30;56.80;;;;;;5031083;28;20111;-65
2023/06/07 02:50:32;;;;;;;5.47;3.88;;;14.30;56.90;;;;;;5021760;28;20477;-67
2023/06/07 02:52:59;;;;;;;6.70;4.03;;;14.20;56.80;;;;;;5030562;28;20037;-67
2023/06/07 02:55:25;;;;;;;6.07;4.00;;;14.20;56.80;;;;;;5014988;28;20045;-67
2023/06/07 02:57:51;;;;;;;6.50;3.78;;;14.20;56.90;;;;;;5031212;28;20107;-67
2023/06/07 03:00:17;;;;;;;6.60;4.65;;;14.20;56.90;;;;;;5028650;28;20049;-67
2023/06/07 03:02:43;;;;;;;7.43;4.10;;;14.20;56.90;;;;;;5027485;28;20042;-67
2023/06/07 03:05:09;;;;;;;6.40;3.72;;;14.20;56.90;;;;;;5011742;28;20038;-68
2023/06/07 03:07:35;;;;;;;6.15;4.20;;;14.10;56.90;;;;;;5013125;28;20496;-68
2023/06/07 03:10:04;;;;;;;7.80;4.93;;;14.10;57.00;;;;;;4995462;28;20059;-67
2023/06/07 03:12:30;;;;;;;6.53;4.25;;;14.10;57.10;;;;;;5011941;28;20042;-67
2023/06/07 03:14:56;;;;;;;7.45;4.65;;;14.10;57.10;;;;;;5027897;28;20053;-67
2023/06/07 03:17:22;;;;;;;6.35;3.60;;;14.10;57.20;;;;;;5027299;28;20073;-67
2023/06/07 03:19:48;;;;;;;7.18;3.72;;;14.10;57.30;;;;;;5011434;28;20116;-67
2023/06/07 03:22:13;;;;;;;6.70;3.70;;;14.00;57.40;;;;;;5026683;28;20129;-68
2023/06/07 03:24:39;;;;;;;5.43;3.60;;;14.00;57.50;;;;;;5030070;28;20108;-65
2023/06/07 03:27:06;;;;;;;6.45;3.65;;;14.00;57.60;;;;;;5015933;28;20120;-65
2023/06/07 03:29:32;;;;;;;6.32;3.50;;;14.00;57.70;;;;;;5014593;28;20045;-65
2023/06/07 03:31:57;;;;;;;6.68;3.83;;;14.00;57.90;;;;;;5025912;28;20073;-65
2023/06/07 03:34:26;;;;;;;7.55;3.60;;;14.00;58.00;;;;;;5024907;28;20595;-65
2023/06/07 03:36:51;;;;;;;6.40;3.67;;;14.00;58.30;;;;;;5015733;28;20041;-65
2023/06/07 03:39:17;;;;;;;8.07;3.80;;;14.00;58.40;;;;;;5015709;28;20046;-65
2023/06/07 03:41:43;;;;;;;6.85;4.05;;;13.90;58.40;;;;;;5023499;28;20048;-65
2023/06/07 03:44:08;;;;;;;9.25;3.60;;;14.00;58.70;;;;;;5024899;28;20050;-65
2023/06/07 03:46:34;;;;;;;10.80;4.63;;;13.90;58.80;;;;;;5014218;28;20042;-65
2023/06/07 03:49:00;;;;;;;10.43;4.70;;;14.00;59.30;;;;;;5014426;28;20053;-65
2023/06/07 03:51:26;;;;;;;10.10;4.50;;;13.90;59.60;;;;;;5014716;28;20374;-65
2023/06/07 03:53:52;;;;;;;7.03;3.20;;;13.90;59.70;;;;;;5024472;28;20107;-65
2023/06/07 03:56:18;;;;;;;8.20;4.47;;;14.00;59.90;;;;;;5027504;28;20477;-65
2023/06/07 03:58:45;;;;;;;9.82;4.60;;;13.90;60.20;;;;;;5015300;28;20038;-65
2023/06/07 04:01:11;;;;;;;13.43;4.95;;;13.90;60.70;;;;;;5018514;28;20044;-67
2023/06/07 04:03:36;;;;;;;8.57;3.92;;;13.90;61.40;;;;;;5025882;28;20061;-65
2023/06/07 04:06:02;;;;;;;7.03;3.58;;;13.90;61.80;;;;;;5015161;28;20037;-67
2023/06/07 04:08:28;;;;;;;8.35;3.97;;;13.90;61.50;;;;;;5023571;28;20405;-68
2023/06/07 04:10:54;;;;;;;6.93;5.10;;;13.90;61.40;;;;;;5016229;28;20049;-68
2023/06/07 04:13:19;;;;;;;9.52;4.55;;;13.90;62.50;;;;;;5034386;28;20033;-68
2023/06/07 04:15:45;;;;;;;6.35;3.40;;;13.90;62.60;;;;;;5034990;28;20048;-68
2023/06/07 04:18:11;;;;;;;9.98;5.00;;;13.90;62.60;;;;;;5017237;28;20049;-68
2023/06/07 04:20:41;;;;;;;11.00;4.97;;;13.90;62.90;;;;;;5033410;28;20088;-68
2023/06/07 04:23:07;;;;;;;9.05;4.95;;;13.90;63.50;;;;;;5018528;28;20489;-68
2023/06/07 04:25:33;;;;;;;11.73;4.45;;;13.90;63.70;;;;;;5023111;28;20052;-68
2023/06/07 04:28:00;;;;;;;7.60;4.68;;;13.90;64.20;;;;;;5033262;28;20053;-68
2023/06/07 04:30:34;;;;;;;11.25;4.22;;;13.90;64.10;;;;;;5033264;28;20069;-68
2023/06/07 04:33:08;;;;;;;10.70;3.75;;;13.90;64.20;;;;;;4997878;28;20041;-68
2023/06/07 04:35:37;;;;;;;;;;;13.90;64.30;;;;;;5013933;28;20046;-68
2023/06/07 04:38:03;;;;;;;7.93;4.18;;;13.90;63.70;;;;;;5013668;28;19921;-68
2023/06/07 04:40:31;;;;;;;11.05;4.43;;;13.90;64.30;;;;;;5033065;28;20041;-68
2023/06/07 04:43:06;;;;;;;10.10;4.60;;;13.90;64.60;;;;;;5017387;28;20084;-68
2023/06/07 04:45:33;;;;;;;8.55;3.60;;;13.90;64.90;;;;;;5033294;28;20045;-68
2023/06/07 04:48:11;;;;;;;11.65;5.28;;;13.90;65.00;;;;;;5027915;28;20133;-68
2023/06/07 04:50:41;;;;;;;11.15;5.07;;;14.00;65.70;;;;;;5013471;28;20049;-67
2023/06/07 04:53:10;;;;;;;10.20;4.80;;;14.00;65.90;;;;;;5015997;28;20511;-68
2023/06/07 04:55:37;;;;;;;12.52;4.72;;;14.00;66.20;;;;;;5027594;28;20046;-68
2023/06/07 04:58:05;;;;;;;13.63;4.72;;;14.00;66.30;;;;;;5014963;28;20042;-68
2023/06/07 05:00:33;;;;;;;9.85;4.43;;;13.90;66.60;;;;;;5025405;28;20076;-68
2023/06/07 05:03:08;;;;;;;11.35;4.63;;;13.90;66.80;;;;;;4999118;28;20136;-68
2023/06/07 05:05:37;;;;;;;11.75;4.70;;;13.90;67.20;;;;;;5032398;28;20489;-68
2023/06/07 05:08:04;;;;;;;9.73;3.95;;;13.90;67.50;;;;;;5015962;28;20179;-68
2023/06/07 05:10:30;;;;;;;14.90;5.63;;;14.00;67.50;;;;;;5032346;28;20049;-68
2023/06/07 05:12:56;;;;;;;11.88;4.93;;;14.00;67.60;;;;;;5019049;28;20104;-68
2023/06/07 05:15:23;;;;;;;14.93;5.93;;;14.00;67.80;;;;;;5031969;28;20434;-68
2023/06/07 05:17:50;;;;;;;10.70;5.00;;;14.10;68.00;;;;;;5033352;28;20047;-68
2023/06/07 05:20:16;;;;;;;12.32;5.13;;;14.10;68.10;;;;;;5026883;28;20030;-68
2023/06/07 05:22:43;;;;;;;9.55;4.05;;;14.20;68.10;;;;;;5013409;28;20045;-68
2023/06/07 05:25:11;;;;;;;12.48;5.47;;;14.20;68.00;;;;;;5018888;28;20488;-68
2023/06/07 05:27:37;;;;;;;17.05;5.65;;;14.20;68.20;;;;;;5012752;28;20436;-68
2023/06/07 05:30:07;;;;;;;10.73;4.65;;;14.30;68.10;;;;;;5010134;28;20086;-68
2023/06/07 05:32:36;;;;;;;8.65;4.03;;;14.30;68.10;;;;;;4992648;28;20053;-68
2023/06/07 05:35:03;;;;;;;10.82;4.30;;;14.40;67.70;;;;;;4992963;28;20121;-68
2023/06/07 05:37:30;;;;;;;13.55;5.18;;;14.40;67.70;;;;;;5013121;28;20040;-68
2023/06/07 05:39:56;;;;;;;8.55;3.85;;;14.40;67.60;;;;;;5023016;28;20137;-68
2023/06/07 05:42:22;;;;;;;13.65;5.07;;;14.40;67.40;;;;;;5013527;28;20120;-68
2023/06/07 05:44:49;;;;;;;13.27;5.03;;;14.40;67.50;;;;;;5011511;28;20045;-68
2023/06/07 05:47:15;;;;;;;8.48;3.95;;;14.50;67.60;;;;;;5011896;28;20100;-68
2023/06/07 05:49:44;;;;;;;15.75;4.57;;;14.50;67.20;;;;;;5013649;28;20425;-68
2023/06/07 05:52:10;;;;;;;12.45;4.18;;;14.50;67.40;;;;;;5012064;28;20125;-68
2023/06/07 05:54:40;;;;;;;10.32;3.75;;;14.50;67.10;;;;;;5013265;28;20045;-68
2023/06/07 05:57:06;;;;;;;13.20;4.13;;;14.50;66.80;;;;;;5013154;28;20559;-69
2023/06/07 05:59:32;;;;;;;14.18;4.57;;;14.60;66.70;;;;;;5018192;28;20418;-68
2023/06/07 06:01:58;;;;;;;10.15;3.95;;;14.70;66.70;;;;;;5018372;28;20065;-68
2023/06/07 06:04:24;;;;;;;12.18;5.25;;;14.70;66.80;;;;;;5016788;28;20042;-68
2023/06/07 06:06:50;;;;;;;9.82;4.32;;;14.70;66.90;;;;;;5013432;28;20049;-68
2023/06/07 06:09:17;;;;;;;13.35;4.78;;;14.70;66.70;;;;;;5012227;28;20046;-68
2023/06/07 06:11:43;;;;;;;9.45;3.83;;;14.80;66.70;;;;;;5014683;28;20073;-68
2023/06/07 06:14:09;;;;;;;13.20;4.72;;;14.80;66.70;;;;;;5031585;28;20073;-68
2023/06/07 06:16:34;;;;;;;9.20;3.90;;;14.80;66.60;;;;;;5031800;28;20192;-68
2023/06/07 06:19:00;;;;;;;11.48;3.80;;;14.80;66.50;;;;;;5032518;28;20503;-68
2023/06/07 06:21:26;;;;;;;11.93;4.38;;;14.80;66.20;;;;;;5031809;28;20076;-68
2023/06/07 06:23:52;;;;;;;8.05;3.35;;;14.90;66.20;;;;;;5031870;28;20380;-68
2023/06/07 06:26:17;;;;;;;12.45;4.72;;;14.80;66.00;;;;;;5048349;28;20041;-68
2023/06/07 06:28:43;;;;;;;15.07;4.03;;;14.90;66.10;;;;;;5027060;28;20735;-68
2023/06/07 06:31:09;;;;;;;11.98;3.70;;;14.90;66.20;;;;;;4995281;28;20501;-68
2023/06/07 06:33:35;;;;;;;11.75;3.45;;;14.90;66.00;;;;;;5011735;28;20058;-68
2023/06/07 06:36:01;;;;;;;10.77;3.55;;;14.90;65.80;;;;;;5012636;28;20045;-68
2023/06/07 06:38:26;;;;;;;8.43;3.55;;;15.00;65.80;;;;;;5012921;28;20048;-68
2023/06/07 06:40:52;;;;;;;10.27;3.33;;;15.00;65.70;;;;;;5011925;28;20056;-67
2023/06/07 06:43:18;;;;;;;8.07;3.35;;;15.10;66.20;;;;;;5012790;28;20041;-68
2023/06/07 06:45:44;;;;;;;11.48;3.50;;;15.10;65.80;;;;;;5021667;28;20045;-68
2023/06/07 06:48:10;;;;;;;10.95;3.45;;;15.20;65.50;;;;;;5031596;28;20045;-68
2023/06/07 06:50:36;;;;;;;12.50;3.97;;;15.30;65.50;;;;;;5032691;28;20041;-68
2023/06/07 06:53:02;;;;;;;10.10;3.50;;;15.30;65.20;;;;;;5012583;28;20551;-68
2023/06/07 06:55:28;;;;;;;10.15;3.83;;;15.40;65.00;;;;;;5011541;28;20049;-67
2023/06/07 06:57:55;;;;;;;13.68;4.38;;;15.50;65.20;;;;;;4997864;28;20504;-67
2023/06/07 07:00:21;;;;;;;8.57;3.80;;;15.60;65.50;;;;;;5015319;28;20046;-67
2023/06/07 07:02:47;;;;;;;12.13;4.00;;;15.70;66.00;;;;;;5012244;28;20042;-67
2023/06/07 07:05:13;;;;;;;10.15;3.33;;;15.90;65.40;;;;;;5029947;28;20488;-67
2023/06/07 07:07:39;;;;;;;8.75;2.95;;;16.10;65.30;;;;;;5051633;28;20126;-67
2023/06/07 07:10:05;;;;;;;7.15;3.00;;;16.40;64.70;;;;;;5017237;28;20097;-67
2023/06/07 07:12:31;;;;;;;9.07;3.30;;;16.70;63.80;;;;;;5014833;28;20093;-67
2023/06/07 07:14:57;;;;;;;9.50;3.40;;;17.10;62.60;;;;;;5014948;28;20077;-68
2023/06/07 07:17:22;;;;;;;7.43;3.17;;;17.40;61.60;;;;;;5015030;28;20477;-68
2023/06/07 07:19:48;;;;;;;10.18;3.55;;;17.70;59.80;;;;;;5012116;28;20042;-68
2023/06/07 07:22:14;;;;;;;9.43;2.85;;;17.90;59.30;;;;;;4996436;28;20136;-68
2023/06/07 07:24:40;;;;;;;11.43;3.63;;;18.20;58.80;;;;;;4996450;28;20394;-68
2023/06/07 07:27:06;;;;;;;12.02;3.55;;;18.50;58.10;;;;;;5015690;28;20111;-68
2023/06/07 07:29:33;;;;;;;8.93;2.70;;;18.90;57.60;;;;;;5014688;28;20054;-68
2023/06/07 07:31:58;;;;;;;12.50;3.70;;;19.10;57.10;;;;;;5014816;28;20045;-68
2023/06/07 07:34:24;;;;;;;8.27;3.47;;;19.40;56.40;;;;;;5015628;28;20400;-68
2023/06/07 07:36:50;;;;;;;9.85;3.10;;;19.60;55.20;;;;;;5014709;28;20401;-68
2023/06/07 07:39:17;;;;;;;10.18;3.35;;;19.70;54.70;;;;;;5014728;28;20034;-68
2023/06/07 07:41:43;;;;;;;9.02;3.20;;;19.90;54.20;;;;;;5015657;28;20069;-68
2023/06/07 07:44:09;;;;;;;5.88;2.80;;;20.00;53.30;;;;;;5032438;28;20041;-68
2023/06/07 07:46:36;;;;;;;10.43;3.03;;;20.00;53.30;;;;;;5017584;28;20098;-68
2023/06/07 07:49:02;;;;;;;10.02;3.03;;;20.00;53.10;;;;;;5034100;28;20056;-68
2023/06/07 07:51:27;;;;;;;6.00;2.45;;;20.20;52.70;;;;;;5033395;28;20037;-68
2023/06/07 07:53:53;;;;;;;8.90;2.58;;;20.20;52.50;;;;;;5026732;28;20179;-68
2023/06/07 07:56:23;;;;;;;9.05;2.92;;;20.20;52.30;;;;;;5035105;28;20038;-68
2023/06/07 07:58:49;;;;;;;8.43;2.90;;;20.20;52.00;;;;;;5018096;28;20049;-67
2023/06/07 08:01:17;;;;;;;10.20;3.10;;;20.30;51.90;;;;;;5033500;28;20411;-68
2023/06/07 08:03:43;;;;;;;7.65;2.72;;;20.50;52.00;;;;;;5029550;28;20037;-68
2023/06/07 08:06:09;;;;;;;7.47;2.85;;;20.60;52.00;;;;;;5033785;28;20543;-68
2023/06/07 08:08:34;;;;;;;7.70;3.33;;;20.70;51.50;;;;;;5017411;28;20092;-68
2023/06/07 08:11:00;;;;;;;11.38;3.65;;;20.70;51.00;;;;;;5015242;28;20044;-68
2023/06/07 08:13:26;;;;;;;11.05;3.47;;;20.80;51.10;;;;;;5014959;28;20048;-68
2023/06/07 08:15:52;;;;;;;9.10;3.72;;;20.90;51.30;;;;;;5015219;28;20046;-68
2023/06/07 08:18:18;;;;;;;10.43;4.10;;;21.10;50.50;;;;;;5023852;28;20030;-68
2023/06/07 08:20:44;;;;;;;9.48;3.30;;;21.20;50.30;;;;;;5015109;28;20042;-68
2023/06/07 08:23:10;;;;;;;11.02;2.95;;;21.30;50.00;;;;;;5015010;28;20050;-68
2023/06/07 08:25:36;;;;;;;7.65;2.92;;;21.40;50.20;;;;;;5013621;28;20107;-69
2023/06/07 08:28:02;;;;;;;8.10;3.15;;;21.60;50.30;;;;;;5013342;28;20046;-69
2023/06/07 08:30:28;;;;;;;8.45;3.05;;;21.70;49.50;;;;;;5014476;28;20057;-69
2023/06/07 08:32:54;;;;;;;8.50;3.20;;;21.90;49.10;;;;;;5013622;28;20507;-69
2023/06/07 08:35:20;;;;;;;8.93;3.70;;;22.00;48.40;;;;;;5033125;28;20179;-69
2023/06/07 08:37:46;;;;;;;7.97;3.58;;;22.10;48.00;;;;;;5017002;28;20524;-69
2023/06/07 08:40:14;;;;;;;8.07;3.33;;;22.10;46.80;;;;;;5033050;28;20478;-69
2023/06/07 08:42:40;;;;;;;10.15;3.83;;;22.20;46.90;;;;;;5030274;28;20501;-69
2023/06/07 08:45:06;;;;;;;9.27;3.45;;;22.20;46.80;;;;;;5014547;28;20048;-69
2023/06/07 08:47:33;;;;;;;6.90;2.88;;;22.30;46.60;;;;;;5013153;28;20052;-69
2023/06/07 08:50:00;;;;;;;8.40;3.20;;;22.40;46.30;;;;;;5016430;28;20103;-68
2023/06/07 08:52:26;;;;;;;7.95;3.30;;;22.50;45.60;;;;;;5023600;28;20474;-68
2023/06/07 08:55:01;;;;;;;6.55;2.72;;;22.50;45.10;;;;;;5012899;28;20050;-68
2023/06/07 08:57:28;;;;;;;9.30;3.58;;;22.60;45.50;;;;;;5012965;28;20117;-68
2023/06/07 08:59:54;;;;;;;6.93;2.88;;;22.70;45.60;;;;;;5014162;28;20045;-68
2023/06/07 09:02:21;;;;;;;9.00;3.70;;;22.80;46.00;;;;;;5012987;28;20042;-68
2023/06/07 09:04:47;;;;;;;6.80;2.95;;;22.90;45.80;;;;;;5025642;28;20056;-68
2023/06/07 09:07:13;;;;;;;6.60;3.00;;;23.10;44.60;;;;;;5032595;28;20049;-68
2023/06/07 09:09:43;;;;;;;6.45;3.05;;;23.10;44.80;;;;;;5024155;28;20053;-68
2023/06/07 09:12:10;;;;;;;9.00;3.00;;;23.20;45.40;;;;;;5032678;28;20050;-68
2023/06/07 09:14:37;;;;;;;8.07;3.05;;;23.40;45.70;;;;;;5033605;28;20048;-68
2023/06/07 09:17:03;;;;;;;7.90;3.22;;;23.50;45.10;;;;;;5033789;28;20041;-68
2023/06/07 09:19:33;;;;;;;7.85;3.10;;;23.60;43.40;;;;;;5015661;28;20056;-68
2023/06/07 09:21:59;;;;;;;12.95;4.10;;;23.50;43.80;;;;;;5031971;28;20108;-68
2023/06/07 09:24:28;;;;;;;7.85;3.72;;;23.40;43.70;;;;;;5024964;28;20549;-68
2023/06/07 09:26:55;;;;;;;6.10;2.70;;;23.40;43.60;;;;;;5012699;28;20537;-68
2023/06/07 09:29:21;;;;;;;7.10;2.88;;;23.40;44.40;;;;;;5013799;28;20088;-68
2023/06/07 09:31:48;;;;;;;10.98;3.33;;;23.60;43.80;;;;;;5013674;28;20069;-68
2023/06/07 09:34:25;;;;;;;9.50;3.33;;;23.60;43.00;;;;;;5013496;28;20054;-68
2023/06/07 09:36:57;;;;;;;7.43;3.42;;;23.70;43.30;;;;;;5012420;28;20057;-68
2023/06/07 09:39:28;;;;;;;10.00;4.22;;;23.80;43.50;;;;;;5028355;28;20068;-68
2023/06/07 09:41:57;;;;;;;9.52;3.55;;;23.80;42.40;;;;;;5031323;28;20095;-68
2023/06/07 09:44:31;;;;;;;10.38;3.60;;;23.80;42.80;;;;;;5031652;28;20056;-68
2023/06/07 09:46:59;;;;;;;9.40;3.63;;;23.90;42.90;;;;;;5015745;28;20084;-68
2023/06/07 09:49:35;;;;;;;6.50;2.92;;;23.80;42.80;;;;;;5031986;28;20077;-68
2023/06/07 09:52:11;;;;;;;11.07;3.95;;;23.90;43.00;;;;;;5031762;28;20042;-67
2023/06/07 09:54:39;;;;;;;8.77;4.18;;;24.00;42.60;;;;;;5017924;28;20049;-68
2023/06/07 09:57:11;;;;;;;8.40;3.42;;;24.10;42.70;;;;;;4999602;28;20100;-68
2023/06/07 09:59:38;;;;;;;6.93;2.95;;;24.20;42.40;;;;;;5012253;28;20076;-68
2023/06/07 10:02:25;;;;;;;7.85;3.17;;;24.30;42.10;;;;;;5013107;28;20041;-68
2023/06/07 10:04:52;;;;;;;7.88;3.22;;;24.30;41.90;;;;;;5013305;28;20045;-68
2023/06/07 10:07:22;;;;;;;8.32;3.45;;;24.30;41.80;;;;;;5011657;28;20556;-68
2023/06/07 10:09:53;;;;;;;8.80;3.47;;;24.30;41.70;;;;;;5021000;28;20056;-67
2023/06/07 10:12:25;;;;;;;5.30;2.30;;;24.30;41.10;;;;;;5033120;28;20045;-67
2023/06/07 10:14:53;;;;;;;8.15;3.55;;;24.30;41.40;;;;;;5032571;28;20053;-68
2023/06/07 10:17:22;;;;;;;9.15;3.25;;;24.40;41.00;;;;;;5032925;28;20179;-68
2023/06/07 10:19:52;;;;;;;10.05;3.28;;;24.40;41.80;;;;;;5032736;28;20488;-68
2023/06/07 10:22:25;;;;;;;8.23;3.17;;;24.60;42.40;;;;;;5018926;28;20042;-68
2023/06/07 10:25:16;;;;;;;7.45;4.07;;;24.70;42.10;;;;;;5017284;28;20042;-68
2023/06/07 10:28:14;;;;;;;6.43;3.13;;;24.80;41.20;;;;;;4995296;28;20056;-68
2023/06/07 10:31:03;;;;;;;7.30;2.97;;;25.00;41.50;;;;;;5027972;28;20061;-68
2023/06/07 10:33:30;;;;;;;7.95;3.30;;;25.10;40.80;;;;;;5015329;28;20049;-68
2023/06/07 10:35:57;;;;;;;5.63;3.30;;;25.10;40.70;;;;;;5015658;28;20489;-68
2023/06/07 10:38:24;;;;;;;9.65;3.25;;;25.10;40.90;;;;;;5015487;28;20053;-68
2023/06/07 10:40:51;;;;;;;6.90;3.17;;;25.20;40.60;;;;;;5007831;28;20041;-68
2023/06/07 10:43:17;;;;;;;6.78;2.85;;;25.10;40.20;;;;;;5052084;28;20080;-67
2023/06/07 10:45:43;;;;;;;10.77;3.70;;;25.20;40.30;;;;;;5035182;28;20053;-67
2023/06/07 10:48:33;;;;;;;6.93;3.05;;;25.20;40.00;;;;;;5052048;28;20037;-67
2023/06/07 10:50:59;;;;;;;7.43;3.45;;;25.10;40.90;;;;;;5036400;28;20042;-68
2023/06/07 10:53:24;;;;;;;7.95;3.22;;;25.10;40.90;;;;;;5036173;28;20067;-67
2023/06/07 10:55:50;;;;;;;11.07;3.88;;;25.20;39.90;;;;;;5036236;28;20072;-67
2023/06/07 10:58:29;;;;;;;8.43;3.42;;;25.20;40.10;;;;;;5026244;28;20137;-68
2023/06/07 11:00:57;;;;;;;8.15;3.30;;;25.30;40.20;;;;;;5016369;28;20107;-68
2023/06/07 11:03:22;;;;;;;8.60;3.78;;;25.30;40.00;;;;;;5015349;28;20117;-67
2023/06/07 11:06:05;;;;;;;10.25;3.60;;;25.30;39.60;;;;;;5019846;28;20500;-67
2023/06/07 11:08:32;;;;;;;6.65;3.50;;;25.40;39.30;;;;;;5009803;28;20510;-68
2023/06/07 11:11:00;;;;;;;8.70;3.33;;;25.40;39.60;;;;;;5011045;28;20077;-66
2023/06/07 11:13:46;;;;;;;5.82;2.92;;;25.50;39.90;;;;;;5011551;28;20160;-66
2023/06/07 11:16:24;;;;;;;8.88;3.25;;;25.60;40.10;;;;;;5015429;28;20054;-66
2023/06/07 11:18:54;;;;;;;6.78;3.53;;;25.60;39.30;;;;;;5010243;28;20092;-65
2023/06/07 11:21:20;;;;;;;6.68;3.05;;;25.50;39.10;;;;;;5009627;28;20052;-66
2023/06/07 11:23:45;;;;;;;6.82;3.08;;;25.50;39.10;;;;;;5010472;28;20041;-66
2023/06/07 11:26:12;;;;;;;8.35;3.78;;;25.50;38.90;;;;;;5009210;28;20073;-65
2023/06/07 11:28:40;;;;;;;7.82;4.28;;;25.60;38.60;;;;;;5009673;28;20045;-66
2023/06/07 11:31:10;;;;;;;7.13;3.30;;;25.60;38.90;;;;;;5009361;28;20081;-66
2023/06/07 11:33:36;;;;;;;7.13;3.00;;;25.60;38.90;;;;;;4991956;28;20057;-66
2023/06/07 11:36:06;;;;;;;5.15;2.92;;;25.60;39.90;;;;;;5008816;28;20054;-66
2023/06/07 11:38:32;;;;;;;7.43;3.58;;;25.70;39.10;;;;;;5021975;28;20038;-66
2023/06/07 11:40:58;;;;;;;9.90;3.90;;;25.80;39.70;;;;;;5010707;28;20493;-65
2023/06/07 11:43:26;;;;;;;6.80;3.33;;;25.80;39.00;;;;;;5008892;28;20038;-66
2023/06/07 11:45:56;;;;;;;5.80;2.78;;;25.80;38.70;;;;;;5008541;28;20038;-65
2023/06/07 11:48:26;;;;;;;6.38;3.00;;;25.80;38.80;;;;;;5009397;28;20141;-66
2023/06/07 11:50:52;;;;;;;9.35;3.30;;;25.80;38.70;;;;;;5011335;28;20116;-66
2023/06/07 11:53:18;;;;;;;6.00;3.28;;;25.80;38.90;;;;;;5048756;28;20124;-66
2023/06/07 11:55:43;;;;;;;7.80;3.25;;;25.80;38.50;;;;;;5035193;28;20065;-66
2023/06/07 11:58:09;;;;;;;8.07;2.90;;;25.80;38.10;;;;;;5034966;28;20080;-66
2023/06/07 12:00:37;;;;;;;8.00;3.88;;;25.80;38.30;;;;;;5033389;28;20048;-66
2023/06/07 12:03:04;;;;;;;6.70;3.13;;;25.70;39.00;;;;;;5032702;28;20352;-65
2023/06/07 12:05:30;;;;;;;6.07;3.13;;;25.80;38.60;;;;;;5034792;28;20038;-65
2023/06/07 12:08:04;;;;;;;7.57;3.40;;;25.80;38.90;;;;;;5035278;28;20041;-65
2023/06/07 12:10:36;;;;;;;5.80;3.15;;;25.90;38.50;;;;;;5033858;28;20400;-65
2023/06/07 12:13:11;;;;;;;5.75;2.65;;;26.00;38.90;;;;;;5033769;28;20052;-65
2023/06/07 12:15:57;;;;;;;6.85;3.17;;;26.20;38.80;;;;;;5034930;28;20064;-65
2023/06/07 12:18:27;;;;;;;5.88;3.33;;;26.30;39.10;;;;;;5024961;28;20161;-65
2023/06/07 12:21:11;;;;;;;8.30;3.67;;;26.30;38.10;;;;;;5016030;28;20085;-65
2023/06/07 12:23:47;;;;;;;4.85;3.00;;;26.40;38.50;;;;;;5013562;28;20050;-65
2023/06/07 12:26:15;;;;;;;9.38;3.60;;;26.40;38.60;;;;;;5013768;28;20057;-65
2023/06/07 12:28:42;;;;;;;6.35;3.50;;;26.30;37.80;;;;;;5014652;28;20038;-65
2023/06/07 12:31:16;;;;;;;7.43;3.53;;;26.30;38.10;;;;;;5013289;28;20196;-65
2023/06/07 12:34:02;;;;;;;5.47;3.58;;;26.10;38.40;;;;;;5013238;28;20504;-65
2023/06/07 12:36:36;;;;;;;6.82;2.95;;;26.00;38.70;;;;;;5009262;28;20033;-65
2023/06/07 12:39:11;;;;;;;;;;;26.00;39.50;;;;;;5050346;28;20102;-65
2023/06/07 12:41:38;;;;;;;6.07;3.63;;;26.00;39.30;;;;;;5032922;28;20463;-65
2023/06/07 12:44:06;;;;;;;6.82;3.50;;;26.00;38.60;;;;;;5034163;28;20671;-66
2023/06/07 12:46:32;;;;;;;8.77;4.28;;;26.10;38.40;;;;;;5032899;28;20077;-65
2023/06/07 12:48:59;;;;;;;7.70;3.83;;;26.00;38.50;;;;;;5033166;28;20092;-66